createdAt,value
2022-08-20T00:02:10.613Z,21.90
2022-08-20T00:04:41.151Z,21.90
2022-08-20T00:11:34.737Z,21.90
2022-08-20T00:14:05.086Z,21.90
2022-08-20T00:16:39.261Z,21.90
2022-08-20T00:19:09.953Z,21.90
2022-08-20T00:21:37.116Z,21.90
2022-08-20T00:24:06.582Z,21.90
2022-08-20T00:26:35.885Z,21.90
2022-08-20T00:29:04.244Z,21.90
2022-08-20T00:31:31.699Z,21.90
2022-08-20T00:34:00.815Z,21.80
2022-08-20T00:36:32.330Z,21.90
2022-08-20T00:39:02.406Z,21.80
2022-08-20T00:41:32.014Z,21.80
2022-08-20T00:44:21.824Z,21.80
2022-08-20T00:46:49.937Z,21.80
2022-08-20T00:49:24.661Z,21.80
2022-08-20T00:52:02.817Z,21.80
2022-08-20T00:54:51.654Z,21.90
2022-08-20T00:57:26.684Z,21.90
2022-08-20T00:59:57.322Z,21.80
2022-08-20T01:02:29.148Z,21.80
2022-08-20T01:04:59.914Z,21.80
2022-08-20T01:07:35.732Z,21.80
2022-08-20T01:10:07.846Z,21.80
2022-08-20T01:12:35.225Z,21.80
2022-08-20T01:15:04.917Z,21.80
2022-08-20T01:17:36.250Z,21.80
2022-08-20T01:20:13.377Z,21.70
2022-08-20T01:23:11.337Z,21.80
2022-08-20T01:26:03.678Z,21.70
2022-08-20T01:28:39.497Z,21.70
2022-08-20T01:31:14.094Z,21.70
2022-08-20T01:33:42.082Z,21.70
2022-08-20T01:36:12.837Z,21.70
2022-08-20T01:38:50.330Z,21.70
2022-08-20T01:41:29.595Z,21.70
2022-08-20T01:44:01.237Z,21.70
2022-08-20T01:46:36.634Z,21.70
2022-08-20T01:49:23.418Z,21.60
2022-08-20T01:51:55.948Z,21.60
2022-08-20T01:54:23.071Z,21.60
2022-08-20T01:57:03.291Z,21.60
2022-08-20T01:59:30.652Z,21.60
2022-08-20T02:02:02.612Z,21.60
2022-08-20T02:04:34.816Z,21.60
2022-08-20T02:07:04.893Z,21.60
2022-08-20T02:09:35.857Z,21.60
2022-08-20T02:12:06.059Z,21.60
2022-08-20T02:14:40.525Z,21.60
2022-08-20T02:17:13.668Z,21.60
2022-08-20T02:19:55.407Z,21.60
2022-08-20T02:22:36.422Z,21.60
2022-08-20T02:25:06.561Z,21.60
2022-08-20T02:27:37.235Z,21.60
2022-08-20T02:30:08.905Z,21.50
2022-08-20T02:32:40.590Z,21.50
2022-08-20T02:35:13.219Z,21.50
2022-08-20T02:37:43.057Z,21.50
2022-08-20T02:40:18.086Z,21.50
2022-08-20T02:42:56.881Z,21.50
2022-08-20T02:45:24.092Z,21.50
2022-08-20T02:47:52.601Z,21.50
2022-08-20T02:50:21.102Z,21.50
2022-08-20T02:52:51.544Z,21.50
2022-08-20T02:55:28.054Z,21.50
2022-08-20T02:58:01.016Z,21.50
2022-08-20T03:00:38.347Z,21.50
2022-08-20T03:03:08.044Z,21.50
2022-08-20T03:05:39.291Z,21.50
2022-08-20T03:08:08.394Z,21.50
2022-08-20T03:10:39.151Z,21.50
2022-08-20T03:13:11.202Z,21.50
2022-08-20T03:15:42.623Z,21.50
2022-08-20T03:18:10.024Z,21.40
2022-08-20T03:20:37.544Z,21.40
2022-08-20T03:23:08.790Z,21.40
2022-08-20T03:25:36.468Z,21.40
2022-08-20T03:28:06.575Z,21.40
2022-08-20T03:30:36.344Z,21.40
2022-08-20T03:33:03.429Z,21.40
2022-08-20T03:35:31.714Z,21.40
2022-08-20T03:37:58.871Z,21.40
2022-08-20T03:40:32.917Z,21.40
2022-08-20T03:43:02.286Z,21.40
2022-08-20T03:45:29.897Z,21.40
2022-08-20T03:48:01.896Z,21.40
2022-08-20T03:50:33.279Z,21.40
2022-08-20T03:53:03.297Z,21.40
2022-08-20T03:55:32.822Z,21.40
2022-08-20T03:58:02.864Z,21.30
2022-08-20T04:00:42.313Z,21.40
2022-08-20T04:03:10.277Z,21.40
2022-08-20T04:05:41.458Z,21.40
2022-08-20T04:08:19.959Z,21.40
2022-08-20T04:10:50.326Z,21.40
2022-08-20T04:13:22.677Z,21.40
2022-08-20T04:15:55.122Z,21.40
2022-08-20T04:18:24.274Z,21.40
2022-08-20T04:20:54.150Z,21.40
2022-08-20T04:23:21.822Z,21.40
2022-08-20T04:25:49.505Z,21.40
2022-08-20T04:28:44.723Z,21.40
2022-08-20T04:31:14.112Z,21.40
2022-08-20T04:33:44.097Z,21.40
2022-08-20T04:36:14.480Z,21.40
2022-08-20T04:38:50.210Z,21.40
2022-08-20T04:41:24.356Z,21.40
2022-08-20T04:43:55.843Z,21.40
2022-08-20T04:46:25.958Z,21.40
2022-08-20T04:48:53.463Z,21.40
2022-08-20T04:51:27.879Z,21.40
2022-08-20T04:53:56.529Z,21.40
2022-08-20T04:56:27.688Z,21.40
2022-08-20T04:58:59.727Z,21.40
2022-08-20T05:01:27.764Z,21.40
2022-08-20T05:03:55.470Z,21.40
2022-08-20T05:06:25.603Z,21.40
2022-08-20T05:08:54.069Z,21.40
2022-08-20T05:11:35.324Z,21.40
2022-08-20T05:14:05.541Z,21.40
2022-08-20T05:16:37.813Z,21.40
2022-08-20T05:19:11.249Z,21.40
2022-08-20T05:21:41.663Z,21.40
2022-08-20T05:24:10.072Z,21.40
2022-08-20T05:26:39.369Z,21.40
2022-08-20T05:29:06.958Z,21.50
2022-08-20T05:31:35.103Z,21.40
2022-08-20T05:34:10.984Z,21.50
2022-08-20T05:36:44.137Z,21.50
2022-08-20T05:39:11.622Z,21.50
2022-08-20T05:41:41.683Z,21.50
2022-08-20T05:44:13.395Z,21.50
2022-08-20T05:46:43.480Z,21.50
2022-08-20T05:49:19.952Z,21.50
2022-08-20T05:51:47.394Z,21.50
2022-08-20T05:54:15.728Z,21.50
2022-08-20T05:56:42.983Z,21.50
2022-08-20T05:59:14.077Z,21.50
2022-08-20T06:01:43.963Z,21.40
2022-08-20T06:04:25.230Z,21.40
2022-08-20T06:06:55.988Z,21.40
2022-08-20T06:09:31.959Z,21.40
2022-08-20T06:12:07.835Z,21.40
2022-08-20T06:14:35.158Z,21.40
2022-08-20T06:17:07.390Z,21.40
2022-08-20T06:19:35.742Z,21.40
2022-08-20T06:22:18.140Z,21.40
2022-08-20T06:24:48.703Z,21.40
2022-08-20T06:27:19.356Z,21.40
2022-08-20T06:29:46.705Z,21.40
2022-08-20T06:32:16.607Z,21.40
2022-08-20T06:34:50.393Z,21.40
2022-08-20T06:37:31.342Z,21.40
2022-08-20T06:40:16.291Z,21.40
2022-08-20T06:43:11.949Z,21.50
2022-08-20T06:45:40.073Z,21.50
2022-08-20T06:48:15.178Z,21.50
2022-08-20T06:50:48.121Z,21.50
2022-08-20T06:53:19.020Z,21.50
2022-08-20T06:55:49.995Z,21.50
2022-08-20T06:58:30.536Z,21.50
2022-08-20T07:01:11.067Z,21.50
2022-08-20T07:03:42.374Z,21.50
2022-08-20T07:06:25.352Z,21.50
2022-08-20T07:08:52.677Z,21.50
2022-08-20T07:11:24.939Z,21.50
2022-08-20T07:13:55.822Z,21.50
2022-08-20T07:16:24.796Z,21.40
2022-08-20T07:18:56.345Z,21.40
2022-08-20T07:21:23.229Z,21.40
2022-08-20T07:23:50.145Z,21.40
2022-08-20T07:26:17.607Z,21.40
2022-08-20T07:28:47.338Z,21.40
2022-08-20T07:31:35.310Z,21.40
2022-08-20T07:34:08.291Z,21.40
2022-08-20T07:36:37.221Z,21.40
2022-08-20T07:39:06.292Z,21.40
2022-08-20T07:41:33.924Z,21.40
2022-08-20T07:44:01.114Z,21.40
2022-08-20T07:46:31.102Z,21.40
2022-08-20T07:48:59.155Z,21.40
2022-08-20T07:51:26.159Z,21.50
2022-08-20T07:53:58.353Z,21.50
2022-08-20T07:56:26.236Z,21.50
2022-08-20T07:58:56.584Z,21.60
2022-08-20T08:01:31.748Z,21.60
2022-08-20T08:04:00.087Z,21.60
2022-08-20T08:06:29.118Z,21.50
2022-08-20T08:09:04.198Z,21.60
2022-08-20T08:11:37.516Z,21.50
2022-08-20T08:14:06.885Z,21.50
2022-08-20T08:16:36.659Z,21.60
2022-08-20T08:19:12.081Z,21.60
2022-08-20T08:21:44.433Z,21.50
2022-08-20T08:24:14.342Z,21.60
2022-08-20T08:26:50.001Z,21.60
2022-08-20T08:29:17.161Z,21.60
2022-08-20T08:31:48.736Z,21.60
2022-08-20T08:34:18.133Z,21.60
2022-08-20T08:36:50.982Z,21.60
2022-08-20T08:39:18.540Z,21.60
2022-08-20T08:41:52.987Z,21.60
2022-08-20T08:44:38.472Z,21.60
2022-08-20T08:47:18.344Z,21.60
2022-08-20T08:49:48.521Z,21.60
2022-08-20T08:52:29.917Z,21.70
2022-08-20T08:55:01.397Z,21.70
2022-08-20T08:57:29.105Z,21.70
2022-08-20T09:00:14.761Z,21.70
2022-08-20T09:03:12.355Z,21.70
2022-08-20T09:06:01.783Z,21.70
2022-08-20T09:08:43.899Z,21.70
2022-08-20T09:11:10.991Z,21.70
2022-08-20T09:13:40.711Z,21.70
2022-08-20T09:16:07.626Z,21.70
2022-08-20T09:18:34.489Z,21.70
2022-08-20T09:21:01.748Z,21.70
2022-08-20T09:23:30.953Z,21.70
2022-08-20T09:26:04.827Z,21.70
2022-08-20T09:28:32.493Z,21.70
2022-08-20T09:31:04.891Z,21.70
2022-08-20T09:33:54.076Z,21.80
2022-08-20T09:36:31.357Z,21.80
2022-08-20T09:38:59.538Z,21.80
2022-08-20T09:41:33.803Z,21.90
2022-08-20T09:44:03.776Z,21.90
2022-08-20T09:46:30.588Z,22.00
2022-08-20T09:48:57.499Z,22.00
2022-08-20T09:51:31.640Z,22.00
2022-08-20T09:54:02.295Z,22.00
2022-08-20T09:56:36.230Z,22.00
2022-08-20T09:59:03.196Z,22.00
2022-08-20T10:01:33.315Z,22.00
2022-08-20T10:04:00.238Z,22.00
2022-08-20T10:06:29.289Z,22.00
2022-08-20T10:08:59.450Z,22.00
2022-08-20T10:11:28.833Z,22.10
2022-08-20T10:13:57.093Z,22.10
2022-08-20T10:16:24.084Z,22.10
2022-08-20T10:18:51.151Z,22.20
2022-08-20T10:21:18.002Z,22.20
2022-08-20T10:23:47.218Z,22.20
2022-08-20T10:26:15.096Z,22.30
2022-08-20T10:28:46.623Z,22.40
2022-08-20T10:31:15.457Z,22.40
2022-08-20T10:33:44.914Z,22.40
2022-08-20T10:36:15.525Z,22.50
2022-08-20T10:38:46.028Z,22.50
2022-08-20T10:41:12.913Z,22.60
2022-08-20T10:43:41.955Z,22.60
2022-08-20T10:46:09.215Z,22.60
2022-08-20T10:48:40.564Z,22.60
2022-08-20T10:51:07.409Z,22.70
2022-08-20T10:53:34.592Z,22.70
2022-08-20T10:56:01.634Z,22.70
2022-08-20T10:58:30.542Z,22.70
2022-08-20T11:01:09.917Z,22.70
2022-08-20T11:03:36.951Z,22.70
2022-08-20T11:06:06.990Z,22.70
2022-08-20T11:08:38.750Z,22.70
2022-08-20T11:11:06.359Z,22.60
2022-08-20T11:13:35.896Z,22.60
2022-08-20T11:16:05.651Z,22.60
2022-08-20T11:18:33.029Z,22.60
2022-08-20T11:29:53.446Z,22.50
2022-08-20T11:32:21.330Z,22.50
2022-08-20T11:34:48.406Z,22.50
2022-08-20T11:37:20.273Z,22.50
2022-08-20T11:39:47.603Z,22.50
2022-08-20T11:42:16.802Z,22.50
2022-08-20T11:44:43.752Z,22.50
2022-08-20T11:47:21.093Z,22.50
2022-08-20T11:49:48.018Z,22.50
2022-08-20T11:52:14.982Z,22.50
2022-08-20T11:54:44.487Z,22.50
2022-08-20T11:57:27.832Z,22.50
2022-08-20T11:59:56.738Z,22.50
2022-08-20T12:02:23.984Z,22.40
2022-08-20T12:04:55.695Z,22.40
2022-08-20T12:07:26.254Z,22.40
2022-08-20T12:09:53.899Z,22.40
2022-08-20T12:12:24.513Z,22.40
2022-08-20T12:14:53.011Z,22.50
2022-08-20T12:17:26.785Z,22.50
2022-08-20T12:20:02.572Z,22.50
2022-08-20T12:22:29.483Z,22.50
2022-08-20T12:24:58.903Z,22.50
2022-08-20T12:27:29.465Z,22.50
2022-08-20T12:30:07.396Z,22.50
2022-08-20T12:32:36.776Z,22.40
2022-08-20T12:35:05.812Z,22.40
2022-08-20T12:37:34.858Z,22.50
2022-08-20T12:40:05.206Z,22.40
2022-08-20T12:42:37.261Z,22.40
2022-08-20T12:45:05.489Z,22.40
2022-08-20T12:47:35.303Z,22.40
2022-08-20T12:50:14.779Z,22.40
2022-08-20T12:52:42.480Z,22.30
2022-08-20T12:55:12.479Z,22.30
2022-08-20T12:57:52.331Z,22.30
2022-08-20T13:00:22.654Z,22.30
2022-08-20T13:02:52.622Z,22.20
2022-08-20T13:05:20.411Z,22.20
2022-08-20T13:07:47.861Z,22.20
2022-08-20T13:10:23.658Z,22.20
2022-08-20T13:12:54.541Z,22.10
2022-08-20T13:15:24.262Z,22.20
2022-08-20T13:17:57.051Z,22.20
2022-08-20T13:20:34.273Z,22.10
2022-08-20T13:23:03.053Z,22.10
2022-08-20T13:25:29.953Z,22.00
2022-08-20T13:27:59.073Z,22.00
2022-08-20T13:30:28.276Z,22.00
2022-08-20T13:32:57.612Z,21.90
2022-08-20T13:35:24.629Z,22.00
2022-08-20T13:37:51.995Z,22.00
2022-08-20T13:40:21.556Z,22.00
2022-08-20T13:42:50.937Z,22.00
2022-08-20T13:45:17.908Z,22.00
2022-08-20T13:47:44.950Z,22.00
2022-08-20T13:50:15.274Z,21.90
2022-08-20T13:52:43.329Z,22.00
2022-08-20T13:55:18.011Z,21.90
2022-08-20T13:57:46.418Z,21.90
2022-08-20T14:00:30.948Z,21.90
2022-08-20T14:03:02.948Z,21.80
2022-08-20T14:05:33.515Z,21.80
2022-08-20T14:08:12.742Z,21.80
2022-08-20T14:10:42.571Z,21.80
2022-08-20T14:13:15.648Z,21.80
2022-08-20T14:15:45.972Z,21.80
2022-08-20T14:18:14.408Z,21.80
2022-08-20T14:20:46.316Z,21.80
2022-08-20T14:23:16.081Z,21.80
2022-08-20T14:25:46.906Z,21.80
2022-08-20T14:28:18.077Z,21.80
2022-08-20T14:30:52.984Z,21.80
2022-08-20T14:33:24.929Z,21.80
2022-08-20T14:35:54.553Z,21.80
2022-08-20T14:38:21.548Z,21.90
2022-08-20T14:40:50.234Z,21.90
2022-08-20T14:43:17.224Z,21.90
2022-08-20T14:45:46.745Z,21.90
2022-08-20T14:48:14.955Z,21.90
2022-08-20T14:50:41.846Z,21.90
2022-08-20T14:53:08.809Z,21.90
2022-08-20T14:55:37.629Z,21.90
2022-08-20T14:58:13.293Z,21.90
2022-08-20T15:05:04.683Z,21.90
2022-08-20T15:07:37.537Z,21.80
2022-08-20T15:10:06.945Z,21.80
2022-08-20T15:12:36.691Z,21.70
2022-08-20T15:15:15.312Z,21.70
2022-08-20T15:17:45.572Z,21.80
2022-08-20T15:20:20.810Z,21.70
2022-08-20T15:22:49.300Z,21.70
2022-08-20T15:25:18.531Z,21.70
2022-08-20T15:27:46.037Z,21.70
2022-08-20T15:30:19.346Z,21.70
2022-08-20T15:32:50.251Z,21.70
2022-08-20T15:35:22.561Z,21.80
2022-08-20T15:37:50.601Z,21.80
2022-08-20T15:40:27.273Z,21.80
2022-08-20T15:42:55.871Z,21.80
2022-08-20T15:45:22.831Z,21.80
2022-08-20T15:48:00.359Z,21.80
2022-08-20T15:50:38.435Z,21.80
2022-08-20T15:53:12.587Z,21.80
2022-08-20T15:55:58.640Z,21.80
2022-08-20T15:58:35.801Z,21.80
2022-08-20T16:01:26.148Z,21.80
2022-08-20T16:04:01.955Z,21.80
2022-08-20T16:06:34.496Z,21.80
2022-08-20T16:09:21.014Z,21.80
2022-08-20T16:11:59.800Z,21.80
2022-08-20T16:14:30.243Z,21.80
2022-08-20T16:17:05.236Z,21.80
2022-08-20T16:19:46.516Z,21.80
2022-08-20T16:22:17.723Z,21.80
2022-08-20T16:24:47.274Z,21.80
2022-08-20T16:27:23.024Z,21.70
2022-08-20T16:30:04.683Z,21.70
2022-08-20T16:32:47.104Z,21.80
2022-08-20T16:35:34.816Z,21.70
2022-08-20T16:38:28.056Z,21.70
2022-08-20T16:41:25.869Z,21.70
2022-08-20T16:43:57.084Z,21.70
2022-08-20T16:46:38.219Z,21.70
2022-08-20T16:49:13.763Z,21.70
2022-08-20T16:51:49.449Z,21.70
2022-08-20T16:54:29.716Z,21.70
2022-08-20T16:57:02.037Z,21.70
2022-08-20T16:59:29.149Z,21.70
2022-08-20T17:02:10.508Z,21.70
2022-08-20T17:04:59.084Z,21.70
2022-08-20T17:07:46.013Z,21.70
2022-08-20T17:10:15.575Z,21.70
2022-08-20T17:12:50.997Z,21.70
2022-08-20T17:15:25.567Z,21.70
2022-08-20T17:17:55.688Z,21.70
2022-08-20T17:20:25.174Z,21.70
2022-08-20T17:23:14.710Z,21.70
2022-08-20T17:25:46.318Z,21.70
2022-08-20T17:28:18.898Z,21.70
2022-08-20T17:30:47.315Z,21.70
2022-08-20T17:33:26.802Z,21.70
2022-08-20T17:36:17.323Z,21.70
2022-08-20T17:38:49.242Z,21.70
2022-08-20T17:41:31.755Z,21.70
2022-08-20T17:44:04.562Z,21.70
2022-08-20T17:46:35.666Z,21.70
2022-08-20T17:49:07.635Z,21.70
2022-08-20T17:51:42.527Z,21.70
2022-08-20T17:54:15.813Z,21.70
2022-08-20T17:56:43.951Z,21.70
2022-08-20T18:00:01.104Z,21.60
2022-08-20T18:02:22.060Z,21.60
2022-08-20T18:04:50.639Z,21.60
2022-08-20T18:07:24.782Z,21.50
2022-08-20T18:10:06.461Z,21.40
2022-08-20T18:12:45.195Z,21.40
2022-08-20T18:15:32.075Z,21.30
2022-08-20T18:18:20.661Z,21.20
2022-08-20T18:21:11.595Z,21.20
2022-08-20T18:23:41.378Z,21.20
2022-08-20T18:26:18.620Z,21.10
2022-08-20T18:28:54.331Z,21.10
2022-08-20T18:31:30.136Z,21.10
2022-08-20T18:33:57.157Z,21.10
2022-08-20T18:36:28.798Z,21.00
2022-08-20T18:38:59.759Z,21.00
2022-08-20T18:41:40.496Z,21.00
2022-08-20T18:44:26.252Z,21.00
2022-08-20T18:47:00.373Z,21.00
2022-08-20T18:49:38.717Z,21.00
2022-08-20T18:52:22.955Z,20.90
2022-08-20T18:54:56.791Z,20.90
2022-08-20T18:57:41.628Z,20.90
2022-08-20T19:00:23.871Z,20.90
2022-08-20T19:03:03.055Z,20.90
2022-08-20T19:05:48.607Z,20.90
2022-08-20T19:08:35.967Z,20.90
2022-08-20T19:11:49.103Z,20.80
2022-08-20T19:15:00.662Z,20.90
2022-08-20T19:17:40.263Z,20.80
2022-08-20T19:20:17.243Z,20.80
2022-08-20T19:22:47.625Z,20.80
2022-08-20T19:25:48.259Z,20.80
2022-08-20T19:28:28.678Z,20.80
2022-08-20T19:30:56.408Z,20.80
2022-08-20T19:33:29.976Z,20.90
2022-08-20T19:36:11.782Z,20.90
2022-08-20T19:38:52.457Z,20.90
2022-08-20T19:41:32.769Z,20.90
2022-08-20T19:44:02.857Z,20.90
2022-08-20T19:46:43.793Z,20.90
2022-08-20T19:49:19.632Z,20.80
2022-08-20T19:52:05.461Z,20.80
2022-08-20T19:54:48.261Z,20.80
2022-08-20T19:57:17.011Z,20.80
2022-08-20T19:59:58.087Z,20.80
2022-08-20T20:02:28.782Z,20.80
2022-08-20T20:04:58.108Z,20.80
2022-08-20T20:07:30.874Z,20.80
2022-08-20T20:10:00.947Z,20.80
2022-08-20T20:12:27.886Z,20.80
2022-08-20T20:14:55.654Z,20.80
2022-08-20T20:17:38.876Z,20.80
2022-08-20T20:20:30.024Z,20.80
2022-08-20T20:22:56.932Z,20.80
2022-08-20T20:25:38.768Z,20.80
2022-08-20T20:28:20.214Z,20.70
2022-08-20T20:30:48.367Z,20.70
2022-08-20T20:33:26.502Z,20.70
2022-08-20T20:36:09.830Z,20.70
2022-08-20T20:38:40.019Z,20.70
2022-08-20T20:41:20.769Z,20.60
2022-08-20T20:44:03.553Z,20.60
2022-08-20T20:46:34.302Z,20.60
2022-08-20T20:49:15.347Z,20.60
2022-08-20T20:51:51.824Z,20.70
2022-08-20T20:54:26.954Z,20.70
2022-08-20T20:57:03.762Z,20.70
2022-08-20T20:59:33.968Z,20.70
2022-08-20T21:02:04.136Z,20.70
2022-08-20T21:04:38.536Z,20.60
2022-08-20T21:07:10.469Z,20.60
2022-08-20T21:09:39.314Z,20.60
2022-08-20T21:12:12.469Z,20.60
2022-08-20T21:14:39.670Z,20.60
2022-08-20T21:17:08.363Z,20.60
2022-08-20T21:19:43.830Z,20.60
2022-08-20T21:22:12.242Z,20.60
2022-08-20T21:24:41.565Z,20.60
2022-08-20T21:27:10.000Z,20.60
2022-08-20T21:29:39.245Z,20.50
2022-08-20T21:32:12.343Z,20.50
2022-08-20T21:34:42.061Z,20.50
2022-08-20T21:37:08.956Z,20.50
2022-08-20T21:39:36.139Z,20.50
2022-08-20T21:42:19.913Z,20.50
2022-08-20T21:44:53.000Z,20.50
2022-08-20T21:47:20.083Z,20.50
2022-08-20T21:49:46.898Z,20.60
2022-08-20T21:52:16.142Z,20.60
2022-08-20T21:54:45.278Z,20.60
2022-08-20T21:57:20.393Z,20.50
2022-08-20T21:59:48.925Z,20.60
2022-08-20T22:02:17.206Z,20.60
2022-08-20T22:04:46.543Z,20.60
2022-08-20T22:07:13.808Z,20.50
2022-08-20T22:09:40.677Z,20.60
2022-08-20T22:12:21.812Z,20.50
2022-08-20T22:14:49.770Z,20.50
2022-08-20T22:17:19.297Z,20.50
2022-08-20T22:19:46.342Z,20.50
2022-08-20T22:22:22.732Z,20.50
2022-08-20T22:24:52.218Z,20.50
2022-08-20T22:27:19.099Z,20.50
2022-08-20T22:29:45.941Z,20.40
2022-08-20T22:32:14.664Z,20.40
2022-08-20T22:34:45.277Z,20.40
2022-08-20T22:37:13.965Z,20.40
2022-08-20T22:39:40.877Z,20.40
2022-08-20T22:42:07.873Z,20.30
2022-08-20T22:44:34.782Z,20.30
2022-08-20T22:47:07.624Z,20.30
2022-08-20T22:49:36.683Z,20.30
2022-08-20T22:52:03.817Z,20.30
2022-08-20T22:54:36.163Z,20.30
2022-08-20T22:57:03.219Z,20.30
2022-08-20T22:59:33.846Z,20.40
2022-08-20T23:02:18.610Z,20.30
2022-08-20T23:04:45.784Z,20.40
2022-08-20T23:07:14.232Z,20.40
2022-08-20T23:09:42.419Z,20.40
2022-08-20T23:12:09.674Z,20.40
2022-08-20T23:14:37.323Z,20.40
2022-08-20T23:17:15.348Z,20.40
2022-08-20T23:19:42.706Z,20.40
2022-08-20T23:22:11.702Z,20.40
2022-08-20T23:24:40.674Z,20.40
2022-08-20T23:27:11.502Z,20.40
2022-08-20T23:29:38.421Z,20.40
2022-08-20T23:32:05.365Z,20.40
2022-08-20T23:34:35.253Z,20.40
2022-08-20T23:37:02.569Z,20.40
2022-08-20T23:39:31.249Z,20.40
2022-08-20T23:42:01.278Z,20.40
2022-08-20T23:44:30.535Z,20.40
2022-08-20T23:47:00.415Z,20.40
2022-08-20T23:49:28.825Z,20.40
2022-08-20T23:52:00.478Z,20.40
2022-08-20T23:54:31.426Z,20.40
2022-08-20T23:56:58.420Z,20.40
2022-08-20T23:59:26.063Z,20.40
